Time;durP1;ratioP1;P1;durP2;ratioP2;P2;SDS_P1;SDS_P2;PMS_P1;PMS_P2;Temp;Humidity;BMP_temperature;BMP_pressure;BME280_temperature;BME280_humidity;BME280_pressure;Samples;Min_cycle;Max_cycle;Signal;HPM_P1;HPM_P2
2022/10/28 00:01:09;;;;;;;;;12.25;9.50;;;;;19.56;65.39;101376.16;5063186;28;45327;-43
2022/10/28 00:03:39;;;;;;;;;10.50;7.75;;;;;19.57;65.53;101372.41;5059295;28;45429;-43
2022/10/28 00:06:08;;;;;;;;;10.25;7.75;;;;;19.58;65.40;101374.09;5059457;28;45441;-45
2022/10/28 00:08:34;;;;;;;;;9.25;9.25;;;;;19.57;65.29;101360.78;5059751;28;45303;-44
2022/10/28 00:11:11;;;;;;;;;10.25;10.25;;;;;19.56;65.28;101364.53;5059548;28;45387;-45
2022/10/28 00:13:37;;;;;;;;;14.50;8.75;;;;;19.56;65.00;101364.53;5059196;28;46194;-44
2022/10/28 00:16:11;;;;;;;;;13.00;10.00;;;;;19.50;65.33;101358.00;5059385;28;45264;-43
2022/10/28 00:18:37;;;;;;;;;10.75;9.25;;;;;19.50;65.59;101367.97;5059424;28;45374;-44
2022/10/28 00:21:06;;;;;;;;;10.75;9.25;;;;;19.48;65.54;101368.16;5059575;28;45300;-42
2022/10/28 00:23:31;;;;;;;;;12.25;8.50;;;;;19.43;65.78;101362.50;5059069;28;46477;-41
2022/10/28 00:26:12;;;;;;;;;14.00;10.00;;;;;19.40;65.59;101360.19;5059538;28;45505;-46
2022/10/28 00:28:52;;;;;;;;;13.25;8.25;;;;;19.36;65.85;101372.38;5059432;28;45366;-43
2022/10/28 00:31:19;;;;;;;;;9.50;7.00;;;;;19.35;66.05;101370.72;5059548;28;45359;-43
2022/10/28 00:33:45;;;;;;;;;10.50;9.00;;;;;19.26;65.97;101372.69;5058919;28;46179;-45
2022/10/28 00:36:14;;;;;;;;;12.00;8.50;;;;;19.36;65.80;101364.28;5059023;28;45516;-44
2022/10/28 00:38:40;;;;;;;;;9.50;9.00;;;;;19.36;66.10;101380.47;5059114;28;45314;-43
2022/10/28 00:41:06;;;;;;;;;17.25;10.75;;;;;19.38;65.96;101381.09;5058942;28;45319;-42
2022/10/28 00:43:44;;;;;;;;;12.50;8.50;;;;;19.24;66.07;101361.22;5058458;28;46548;-42
2022/10/28 00:46:31;;;;;;;;;8.25;8.25;;;;;19.32;66.18;101369.22;5058871;28;45359;-48
2022/10/28 00:49:01;;;;;;;;;11.00;7.25;;;;;19.34;66.10;101367.19;5058864;28;45355;-43
2022/10/28 00:51:32;;;;;;;;;6.75;6.75;;;;;19.28;66.05;101369.78;5058777;28;45421;-43
2022/10/28 00:53:58;;;;;;;;;16.00;10.00;;;;;19.27;66.15;101370.81;5057299;28;47179;-41
2022/10/28 00:56:27;;;;;;;;;7.50;7.50;;;;;19.25;66.44;101372.84;5058590;28;45395;-42
2022/10/28 00:58:56;;;;;;;;;11.00;7.25;;;;;19.24;66.29;101371.19;5058603;28;45386;-45
2022/10/28 01:01:21;;;;;;;;;11.50;8.00;;;;;19.24;66.26;101363.09;5058842;28;45410;-42
2022/10/28 01:03:47;;;;;;;;;8.00;7.00;;;;;19.23;66.42;101361.44;5058439;28;46187;-43
2022/10/28 01:06:13;;;;;;;;;9.75;7.00;;;;;19.16;66.58;101356.78;5058503;28;45204;-42
2022/10/28 01:08:38;;;;;;;;;11.75;9.00;;;;;19.14;66.26;101353.44;5058916;28;45332;-42
2022/10/28 01:11:22;;;;;;;;;9.50;7.50;;;;;19.13;66.24;101351.78;5058398;28;45445;-43
2022/10/28 01:13:56;;;;;;;;;9.00;8.00;;;;;19.11;66.32;101359.19;5057510;28;46195;-43
2022/10/28 01:16:32;;;;;;;;;8.75;8.00;;;;;19.07;66.72;101357.91;5056693;28;45336;-43
2022/10/28 01:19:55;;;;;;;;;10.00;8.50;;;;;19.04;66.49;101354.75;5058747;28;45269;-47
2022/10/28 01:22:26;;;;;;;;;8.00;7.75;;;;;19.00;66.96;101350.75;5016142;28;45222;-42
2022/10/28 01:25:12;;;;;;;;;6.50;6.50;;;;;18.99;67.01;101358.00;5016062;28;47620;-43
2022/10/28 01:27:55;;;;;;;;;13.00;8.75;;;;;18.96;67.04;101347.59;5015706;28;45435;-42
2022/10/28 01:30:23;;;;;;;;;10.25;7.00;;;;;18.98;66.97;101358.19;5016035;28;45443;-43
2022/10/28 01:32:57;;;;;;;;;6.50;6.50;;;;;18.94;67.12;101352.34;5015960;28;45565;-42
2022/10/28 01:35:29;;;;;;;;;9.00;6.00;;;;;18.92;67.13;101349.00;5015666;28;47128;-45
2022/10/28 01:38:18;;;;;;;;;9.00;7.75;;;;;18.91;67.14;101360.78;5015803;28;45316;-42
2022/10/28 01:40:57;;;;;;;;;12.00;6.50;;;;;18.88;67.21;101345.84;5015794;28;45345;-44
2022/10/28 01:43:30;;;;;;;;;13.75;9.25;;;;;18.80;67.18;101339.72;5015971;28;45435;-42
2022/10/28 01:46:13;;;;;;;;;5.00;5.00;;;;;18.84;67.25;101338.31;5015404;28;46355;-43
2022/10/28 01:48:40;;;;;;;;;8.00;8.00;;;;;18.85;67.42;101342.69;5015562;28;45387;-42
2022/10/28 01:51:18;;;;;;;;;9.00;7.00;;;;;18.86;67.36;101334.41;5015669;28;45380;-42
2022/10/28 01:53:48;;;;;;;;;10.50;7.25;;;;;18.84;67.25;101330.22;5047776;28;45326;-42
2022/10/28 01:56:17;;;;;;;;;7.25;7.25;;;;;18.83;67.26;101333.94;5057533;28;46186;-42
2022/10/28 01:58:44;;;;;;;;;8.75;8.00;;;;;18.85;67.29;101334.59;5056450;28;45986;-41
2022/10/28 02:01:10;;;;;;;;;5.00;5.00;;;;;18.81;67.50;101336.81;5057907;28;45208;-43
2022/10/28 02:03:36;;;;;;;;;5.75;3.00;;;;;18.76;67.74;101339.25;5057895;28;45225;-42
2022/10/28 02:06:05;;;;;;;;;9.00;7.75;;;;;18.73;67.32;101338.78;5057405;28;47239;-44
2022/10/28 02:09:04;;;;;;;;;7.00;6.75;;;;;18.72;67.51;101332.56;5057901;28;45359;-44
2022/10/28 02:11:44;;;;;;;;;6.00;5.00;;;;;18.73;67.42;101331.53;5057688;28;45365;-42
2022/10/28 02:14:24;;;;;;;;;6.75;6.25;;;;;18.74;67.28;101330.50;5057708;28;45385;-44
2022/10/28 02:17:17;;;;;;;;;5.50;4.00;;;;;18.75;67.42;101331.31;5057637;28;45255;-42
2022/10/28 02:19:59;;;;;;;;;9.25;4.00;;;;;18.65;67.34;101318.09;5057468;28;45286;-43
2022/10/28 02:22:49;;;;;;;;;12.75;6.50;;;;;18.71;67.42;101330.88;5057690;28;45316;-42
2022/10/28 02:25:27;;;;;;;;;8.00;7.75;;;;;18.70;67.33;101326.50;5057174;28;45410;-44
2022/10/28 02:28:27;;;;;;;;;8.25;8.25;;;;;18.68;67.46;101317.75;5057015;28;47318;-43
2022/10/28 02:30:58;;;;;;;;;9.75;7.00;;;;;18.70;67.26;101324.63;5043512;28;45437;-43
2022/10/28 02:33:28;;;;;;;;;12.75;8.00;;;;;18.67;67.39;101319.59;5057131;28;45330;-42
2022/10/28 02:35:59;;;;;;;;;8.25;6.50;;;;;18.68;67.42;101323.13;5057466;28;45518;-42
2022/10/28 02:38:33;;;;;;;;;11.75;9.00;;;;;18.64;67.62;101325.34;5057002;28;45597;-43
2022/10/28 02:41:04;;;;;;;;;7.50;7.00;;;;;18.65;67.40;101326.19;5056813;28;45321;-43
2022/10/28 02:43:33;;;;;;;;;9.00;7.50;;;;;18.65;67.54;101323.50;5056966;28;45174;-42
2022/10/28 02:46:01;;;;;;;;;6.50;6.50;;;;;18.61;67.50;101311.41;5057448;28;45327;-44
2022/10/28 02:48:32;;;;;;;;;9.25;6.25;;;;;18.63;67.35;101317.47;5056871;28;47197;-44
2022/10/28 02:51:14;;;;;;;;;12.25;7.25;;;;;18.62;67.39;101316.59;5056854;28;45437;-42
2022/10/28 02:53:53;;;;;;;;;8.25;7.75;;;;;18.63;67.29;101312.91;5056976;28;45319;-42
2022/10/28 02:56:20;;;;;;;;;8.00;6.25;;;;;18.59;67.22;101310.78;5057008;28;45320;-41
2022/10/28 02:58:46;;;;;;;;;9.75;7.50;;;;;18.63;67.36;101315.59;5056761;28;45396;-42
2022/10/28 03:01:12;;;;;;;;;8.75;7.00;;;;;18.63;67.22;101320.16;5055555;28;45406;-43
2022/10/28 03:03:37;;;;;;;;;5.00;5.00;;;;;18.56;67.56;101317.38;5056804;28;45371;-42
2022/10/28 03:06:03;;;;;;;;;9.25;6.75;;;;;18.52;67.48;101315.22;5057058;28;45231;-43
2022/10/28 03:08:28;;;;;;;;;9.00;6.75;;;;;18.53;67.57;101320.41;5056626;28;45361;-41
2022/10/28 03:10:53;;;;;;;;;8.25;6.00;;;;;18.54;67.54;101321.25;5056611;28;45267;-41
2022/10/28 03:13:19;;;;;;;;;5.25;5.25;;;;;18.54;67.52;101314.03;5056484;28;45292;-43
2022/10/28 03:15:46;;;;;;;;;8.50;5.50;;;;;18.42;67.34;101283.19;5056992;28;45369;-44
2022/10/28 03:18:11;;;;;;;;;6.50;5.25;;;;;18.49;67.49;101300.25;5056417;28;47375;-42
2022/10/28 03:20:36;;;;;;;;;13.00;8.00;;;;;18.48;67.39;101298.59;5056680;28;45368;-44
2022/10/28 03:23:02;;;;;;;;;7.50;6.75;;;;;18.49;67.45;101292.16;5056598;28;45265;-42
2022/10/28 03:25:27;;;;;;;;;6.00;6.00;;;;;18.45;67.60;101288.19;5056720;28;45300;-43
2022/10/28 03:27:52;;;;;;;;;5.25;5.25;;;;;18.45;67.60;101291.69;5056384;28;45985;-42
2022/10/28 03:30:18;;;;;;;;;8.00;6.25;;;;;18.40;67.19;101277.94;5056319;28;45322;-44
2022/10/28 03:32:44;;;;;;;;;5.75;5.25;;;;;18.42;67.61;101286.72;5056503;28;45683;-42
2022/10/28 03:35:09;;;;;;;;;10.50;7.00;;;;;18.40;67.63;101279.81;5056686;28;45340;-42
2022/10/28 03:37:34;;;;;;;;;6.00;6.00;;;;;18.39;67.56;101284.38;5056806;28;46192;-42
2022/10/28 03:40:01;;;;;;;;;8.50;6.00;;;;;18.39;67.71;101286.22;5060050;28;45356;-44
2022/10/28 03:42:28;;;;;;;;;5.75;5.75;;;;;18.30;67.67;101273.88;5059933;28;45298;-43
2022/10/28 03:44:53;;;;;;;;;4.00;2.75;;;;;18.32;67.88;101286.13;5059844;28;45394;-42
2022/10/28 03:47:18;;;;;;;;;7.75;6.75;;;;;18.32;67.83;101277.22;5059634;28;45965;-42
2022/10/28 03:49:44;;;;;;;;;10.50;5.50;;;;;18.30;67.90;101274.72;5059526;28;45250;-43
2022/10/28 03:52:09;;;;;;;;;10.25;8.00;;;;;18.35;67.83;101271.47;5059809;28;45283;-42
2022/10/28 03:54:34;;;;;;;;;7.75;7.00;;;;;18.33;67.64;101278.88;5059864;28;45423;-42
2022/10/28 03:57:00;;;;;;;;;8.25;5.75;;;;;18.31;67.83;101278.25;5059563;28;45946;-43
2022/10/28 03:59:25;;;;;;;;;7.75;6.00;;;;;18.30;67.75;101279.25;5059614;28;45414;-42
2022/10/28 04:01:50;;;;;;;;;7.50;6.75;;;;;18.28;67.89;101284.81;5059687;28;45276;-42
2022/10/28 04:04:15;;;;;;;;;6.75;6.00;;;;;18.23;68.01;101284.53;5059949;28;45246;-43
2022/10/28 04:06:41;;;;;;;;;10.75;7.25;;;;;18.24;67.92;101275.44;5059485;28;45888;-41
2022/10/28 04:09:06;;;;;;;;;7.75;7.00;;;;;18.25;67.72;101276.28;5059395;28;45331;-42
2022/10/28 04:11:31;;;;;;;;;6.75;6.75;;;;;18.24;67.99;101275.44;5059349;28;45344;-41
2022/10/28 04:13:57;;;;;;;;;7.50;5.00;;;;;18.19;67.91;101269.75;5059385;28;45495;-45
2022/10/28 04:16:22;;;;;;;;;16.50;7.50;;;;;18.20;67.93;101280.38;5059369;28;45821;-42
2022/10/28 04:18:48;;;;;;;;;9.25;6.25;;;;;18.21;67.79;101270.44;5059155;28;45378;-42
2022/10/28 04:21:13;;;;;;;;;13.50;8.00;;;;;18.19;67.99;101281.38;5059273;28;45424;-43
2022/10/28 04:23:38;;;;;;;;;13.50;7.75;;;;;18.17;68.17;101282.59;5059421;28;45362;-43
2022/10/28 04:26:04;;;;;;;;;8.00;6.50;;;;;18.13;68.08;101279.44;5059162;28;45406;-42
2022/10/28 04:28:29;;;;;;;;;11.75;7.25;;;;;18.14;68.08;101275.72;5059079;28;45438;-45
2022/10/28 04:30:55;;;;;;;;;6.50;6.50;;;;;18.12;68.01;101271.53;5057810;28;45308;-45
2022/10/28 04:33:20;;;;;;;;;11.00;6.00;;;;;18.05;67.81;101260.66;5059091;28;45477;-44
2022/10/28 04:35:45;;;;;;;;;8.00;5.00;;;;;18.10;67.79;101262.78;5058983;28;46039;-42
2022/10/28 04:38:12;;;;;;;;;11.75;8.25;;;;;18.14;67.86;101280.25;5058947;28;45473;-43
2022/10/28 04:40:38;;;;;;;;;9.00;7.75;;;;;18.13;67.68;101278.59;5058930;28;45341;-43
2022/10/28 04:43:04;;;;;;;;;8.50;5.00;;;;;18.10;67.84;101279.78;5058961;28;45517;-47
2022/10/28 04:45:30;;;;;;;;;8.75;6.50;;;;;18.11;67.92;101275.22;5058556;28;46216;-41
2022/10/28 04:47:59;;;;;;;;;12.50;8.00;;;;;18.09;67.76;101272.72;5058767;28;45402;-41
2022/10/28 04:50:25;;;;;;;;;6.50;5.75;;;;;18.04;67.81;101269.75;5058585;28;45393;-42
2022/10/28 04:52:50;;;;;;;;;9.00;8.00;;;;;18.11;67.89;101267.97;5058951;28;45473;-45
2022/10/28 04:55:16;;;;;;;;;7.75;5.75;;;;;18.11;67.81;101259.91;5058468;28;45430;-45
2022/10/28 04:57:41;;;;;;;;;9.00;6.75;;;;;18.13;67.55;101265.97;5058297;28;45406;-44
2022/10/28 05:00:07;;;;;;;;;14.75;7.25;;;;;18.12;67.76;101271.53;5058815;28;45413;-41
2022/10/28 05:02:32;;;;;;;;;7.25;7.00;;;;;18.08;67.79;101272.94;5058839;28;45440;-42
2022/10/28 05:05:02;;;;;;;;;11.00;7.00;;;;;18.08;67.73;101273.75;5058896;28;47016;-42
2022/10/28 05:07:27;;;;;;;;;11.50;8.00;;;;;18.09;67.66;101274.59;5059063;28;45386;-47
2022/10/28 05:09:53;;;;;;;;;7.00;6.25;;;;;18.11;67.63;101267.97;5058884;28;45558;-43
2022/10/28 05:12:18;;;;;;;;;10.50;8.50;;;;;18.11;67.43;101267.97;5058798;28;45477;-42
2022/10/28 05:14:43;;;;;;;;;11.00;7.50;;;;;18.08;67.53;101263.00;5058819;28;46326;-42
2022/10/28 05:17:10;;;;;;;;;12.25;8.00;;;;;18.07;67.66;101266.69;5058498;28;45382;-43
2022/10/28 05:19:36;;;;;;;;;12.25;10.00;;;;;18.06;67.74;101267.72;5058272;28;45310;-43
2022/10/28 05:22:01;;;;;;;;;8.75;4.50;;;;;18.05;67.56;101270.59;5058431;28;45372;-43
2022/10/28 05:24:27;;;;;;;;;6.75;5.00;;;;;18.01;67.73;101270.13;5058471;28;46295;-41
2022/10/28 05:26:52;;;;;;;;;10.00;6.25;;;;;17.99;67.72;101272.13;5058221;28;45367;-42
2022/10/28 05:29:18;;;;;;;;;11.25;7.25;;;;;17.97;67.51;101267.97;5058227;28;45438;-41
2022/10/28 05:31:44;;;;;;;;;7.00;4.75;;;;;17.98;67.45;101273.16;5057038;28;45256;-42
2022/10/28 05:34:10;;;;;;;;;6.75;6.25;;;;;17.90;67.55;101257.91;5057840;28;45411;-43
2022/10/28 05:36:37;;;;;;;;;15.50;6.75;;;;;17.93;67.45;101262.13;5057979;28;45606;-42
2022/10/28 05:39:03;;;;;;;;;5.00;5.00;;;;;17.97;67.50;101268.81;5058060;28;45412;-42
2022/10/28 05:41:28;;;;;;;;;11.25;7.75;;;;;17.93;67.60;101278.25;5058170;28;45416;-43
2022/10/28 05:43:53;;;;;;;;;6.50;6.00;;;;;17.92;67.67;101273.91;5057427;28;46016;-44
2022/10/28 05:46:21;;;;;;;;;7.00;5.50;;;;;17.91;67.35;101266.84;5057920;28;45341;-42
2022/10/28 05:48:46;;;;;;;;;8.25;5.00;;;;;17.85;67.42;101254.94;5058093;28;45326;-42
2022/10/28 05:51:11;;;;;;;;;12.75;7.25;;;;;17.84;67.78;101268.59;5058123;28;45253;-42
2022/10/28 05:53:37;;;;;;;;;14.25;9.00;;;;;17.83;67.86;101270.44;5057600;28;45334;-43
2022/10/28 05:56:02;;;;;;;;;10.75;9.50;;;;;17.80;67.70;101270.81;5057646;28;45336;-42
2022/10/28 05:58:28;;;;;;;;;7.00;7.00;;;;;17.78;67.69;101272.00;5057785;28;45233;-42
2022/10/28 06:00:53;;;;;;;;;14.25;9.00;;;;;17.77;67.99;101278.41;5057409;28;45212;-42
2022/10/28 06:03:18;;;;;;;;;12.00;7.75;;;;;17.78;67.84;101277.38;5057492;28;46192;-41
2022/10/28 06:05:44;;;;;;;;;9.00;9.00;;;;;17.76;67.68;101280.25;5057644;28;45251;-42
2022/10/28 06:08:11;;;;;;;;;10.75;8.75;;;;;17.75;67.83;101275.91;5057846;28;45398;-43
2022/10/28 06:10:37;;;;;;;;;7.75;7.00;;;;;17.75;67.79;101280.44;5057900;28;45339;-45
2022/10/28 06:13:02;;;;;;;;;10.25;6.50;;;;;17.68;67.74;101278.44;5057223;28;46276;-44
2022/10/28 06:15:28;;;;;;;;;7.50;6.25;;;;;17.68;67.82;101273.03;5057204;28;45243;-41
2022/10/28 06:17:53;;;;;;;;;10.75;7.50;;;;;17.72;67.92;101292.38;5057640;28;45331;-43
2022/10/28 06:20:19;;;;;;;;;14.75;6.50;;;;;17.72;67.84;101289.69;5057618;28;45302;-43
2022/10/28 06:22:49;;;;;;;;;11.00;8.33;;;;;17.70;67.67;101283.66;5057224;28;45351;-43
2022/10/28 06:25:15;;;;;;;;;10.50;9.00;;;;;17.73;67.89;101285.97;5056868;28;45241;-46
2022/10/28 06:27:40;;;;;;;;;10.75;9.00;;;;;17.70;67.99;101289.88;5056551;28;45435;-44
2022/10/28 06:30:06;;;;;;;;;13.00;7.33;;;;;17.69;67.91;101292.72;5063316;27;45394;-44
2022/10/28 06:32:32;;;;;;;;;10.00;7.75;;;;;17.68;68.05;101299.94;5056693;28;46147;-43
2022/10/28 06:34:58;;;;;;;;;11.00;7.00;;;;;17.66;68.04;101295.78;5055419;28;45670;-44
2022/10/28 06:37:23;;;;;;;;;12.00;8.00;;;;;17.68;67.79;101312.56;5054309;28;45456;-43
2022/10/28 06:39:51;;;;;;;;;12.67;7.00;;;;;17.68;67.94;101297.25;5054626;28;45512;-43
2022/10/28 06:42:17;;;;;;;;;9.25;9.00;;;;;17.63;68.09;101294.28;5054234;28;46063;-45
2022/10/28 06:44:42;;;;;;;;;13.00;10.33;;;;;17.65;67.96;101308.38;5053865;28;45613;-44
2022/10/28 06:47:08;;;;;;;;;8.50;8.25;;;;;17.65;68.01;101307.53;5054124;28;45472;-42
2022/10/28 06:49:33;;;;;;;;;16.25;9.75;;;;;17.64;67.84;101313.94;5054640;28;45468;-44
2022/10/28 06:51:58;;;;;;;;;13.50;8.00;;;;;17.65;68.02;101315.63;5054000;28;46152;-43
2022/10/28 06:54:24;;;;;;;;;10.00;10.00;;;;;17.63;68.05;101318.50;5054028;28;45581;-46
2022/10/28 06:56:49;;;;;;;;;12.25;9.00;;;;;17.55;68.06;101313.16;5054260;28;45366;-43
2022/10/28 06:59:15;;;;;;;;;11.75;7.75;;;;;17.61;67.88;101328.63;5054138;28;46236;-44
2022/10/28 07:01:40;;;;;;;;;9.25;5.00;;;;;17.61;67.81;101333.13;5054047;28;46985;-43
2022/10/28 07:04:10;;;;;;;;;14.00;10.33;;;;;17.63;67.85;101340.03;5053862;28;45538;-44
2022/10/28 07:06:35;;;;;;;;;11.33;8.67;;;;;17.63;68.02;101337.34;5053617;28;45763;-44
2022/10/28 07:09:01;;;;;;;;;14.00;9.25;;;;;17.65;67.97;101346.03;5056817;28;45484;-43
2022/10/28 07:11:26;;;;;;;;;12.00;8.00;;;;;17.68;67.79;101348.38;5056760;28;46107;-43
2022/10/28 07:13:51;;;;;;;;;13.67;8.00;;;;;17.59;67.73;101346.78;5059968;28;45402;-42
2022/10/28 07:16:17;;;;;;;;;11.33;8.33;;;;;17.68;67.68;101359.16;5059901;28;45656;-42
2022/10/28 07:18:42;;;;;;;;;12.00;9.67;;;;;17.69;67.53;101355.44;5058137;28;45387;-44
2022/10/28 07:21:07;;;;;;;;;15.50;7.00;;;;;17.73;67.56;101363.16;5057130;28;46009;-41
2022/10/28 07:23:33;;;;;;;;;1.50;1.50;;;;;17.66;67.82;101336.16;5057569;28;45373;-42
2022/10/28 07:25:59;;;;;;;;;13.50;9.00;;;;;17.79;67.48;101365.19;5057633;28;45823;-44
2022/10/28 07:28:25;;;;;;;;;10.67;10.33;;;;;17.82;67.39;101362.13;5057515;28;45381;-42
2022/10/28 07:30:51;;;;;;;;;10.00;9.33;;;;;17.86;67.41;101369.66;5057035;28;46301;-45
2022/10/28 07:33:17;;;;;;;;;11.25;8.75;;;;;17.91;67.15;101377.22;5057054;28;45784;-43
2022/10/28 07:35:43;;;;;;;;;16.50;13.50;;;;;17.93;67.06;101369.78;5056980;28;45413;-44
2022/10/28 07:38:09;;;;;;;;;13.00;8.25;;;;;18.01;66.93;101376.97;5055304;28;45407;-44
2022/10/28 07:40:34;;;;;;;;;17.67;13.00;;;;;18.03;67.14;101383.81;5055519;28;46872;-47
2022/10/28 07:43:00;;;;;;;;;13.25;7.25;;;;;18.10;66.71;101383.97;5056947;28;45557;-46
2022/10/28 07:45:25;;;;;;;;;19.00;13.00;;;;;18.13;66.68;101397.91;5056706;28;45457;-43
2022/10/28 07:47:51;;;;;;;;;16.75;8.25;;;;;18.15;66.38;101379.69;5056998;28;45494;-45
2022/10/28 07:50:17;;;;;;;;;11.50;8.00;;;;;18.11;66.26;101381.06;5057048;28;45493;-46
2022/10/28 07:52:43;;;;;;;;;11.75;7.00;;;;;18.19;66.32;101391.78;5056846;28;45410;-43
2022/10/28 07:55:09;;;;;;;;;14.00;10.33;;;;;18.24;66.13;101398.47;5056820;28;45445;-46
2022/10/28 07:57:34;;;;;;;;;15.00;9.67;;;;;18.30;65.78;101398.59;5056857;28;45458;-43
2022/10/28 08:00:00;;;;;;;;;16.67;12.00;;;;;18.36;65.68;101399.72;5056435;28;45394;-46
2022/10/28 08:02:26;;;;;;;;;11.00;9.00;;;;;18.40;65.83;101404.56;5056815;28;45386;-43
2022/10/28 08:04:51;;;;;;;;;14.50;11.50;;;;;18.45;65.50;101409.41;5058030;28;45308;-43
2022/10/28 08:07:18;;;;;;;;;16.67;11.67;;;;;18.53;65.40;101409.31;5056016;28;45571;-45
2022/10/28 08:09:44;;;;;;;;;17.00;8.33;;;;;18.57;64.95;101413.34;5056547;28;47133;-44
2022/10/28 08:12:12;;;;;;;;;19.00;11.75;;;;;18.63;64.91;101431.47;5057508;28;45419;-43
2022/10/28 08:14:38;;;;;;;;;17.50;11.25;;;;;18.74;64.63;101434.78;5057362;28;45794;-42
2022/10/28 08:17:03;;;;;;;;;13.00;11.75;;;;;18.81;64.43;101436.56;5056917;28;45383;-43
2022/10/28 08:19:29;;;;;;;;;11.75;9.00;;;;;18.84;63.97;101420.03;5056466;28;46091;-44
2022/10/28 08:21:55;;;;;;;;;21.25;10.00;;;;;18.87;63.97;101429.59;5056413;28;45193;-42
2022/10/28 08:24:20;;;;;;;;;13.50;9.00;;;;;18.93;63.72;101426.16;5055731;28;45462;-43
2022/10/28 08:26:45;;;;;;;;;15.50;7.25;;;;;18.98;63.38;101439.09;5056746;28;45454;-43
2022/10/28 08:29:11;;;;;;;;;17.75;9.75;;;;;19.05;63.21;101442.72;5056200;28;45894;-42
2022/10/28 08:31:37;;;;;;;;;11.50;10.00;;;;;19.07;63.19;101430.72;5058113;28;45822;-44
2022/10/28 08:34:04;;;;;;;;;16.50;13.25;;;;;19.14;62.94;101449.69;5058993;28;45272;-43
2022/10/28 08:36:29;;;;;;;;;12.75;10.00;;;;;19.16;62.12;101431.44;5059044;28;45366;-46
2022/10/28 08:38:54;;;;;;;;;12.25;11.50;;;;;19.31;62.48;101435.00;5056538;28;46281;-42
2022/10/28 08:41:39;;;;;;;;;10.75;9.25;;;;;19.39;62.39;101447.56;5057061;28;45437;-43
2022/10/28 08:44:40;;;;;;;;;14.75;11.25;;;;;19.49;61.65;101431.91;5054884;28;45493;-43
2022/10/28 08:47:42;;;;;;;;;11.50;9.50;;;;;19.60;60.97;101447.63;5012114;28;46406;-42
2022/10/28 08:50:20;;;;;;;;;10.00;8.00;;;;;19.67;60.05;101451.25;5016083;28;46125;-44
2022/10/28 08:53:00;;;;;;;;;9.25;8.00;;;;;19.76;60.19;101459.22;5013569;28;46725;-41
2022/10/28 08:55:36;;;;;;;;;14.00;9.00;;;;;19.88;59.38;101452.31;5013900;28;45439;-46
2022/10/28 08:58:11;;;;;;;;;11.50;7.75;;;;;19.98;58.72;101455.56;5013998;28;45485;-46
2022/10/28 09:00:39;;;;;;;;;15.25;8.00;;;;;20.08;58.34;101456.06;5013111;28;45485;-46
2022/10/28 09:03:10;;;;;;;;;13.25;8.75;;;;;20.16;57.83;101457.81;5011359;28;45556;-48
2022/10/28 09:05:36;;;;;;;;;10.25;7.50;;;;;20.22;58.11;101478.66;5013739;28;45504;-45
2022/10/28 09:08:02;;;;;;;;;12.75;7.75;;;;;20.37;57.23;101478.59;5013396;28;45612;-43
2022/10/28 09:10:46;;;;;;;;;12.00;9.75;;;;;20.68;57.31;101471.00;5013150;28;46124;-44
2022/10/28 09:13:20;;;;;;;;;7.00;6.00;;;;;20.95;56.65;101465.81;5013456;28;45571;-42
2022/10/28 09:16:04;;;;;;;;;13.50;8.00;;;;;21.24;55.96;101478.28;5013245;28;45568;-44
2022/10/28 09:18:48;;;;;;;;;10.25;7.25;;;;;21.48;55.31;101476.97;5013407;28;45547;-43
2022/10/28 09:21:39;;;;;;;;;11.00;9.00;;;;;21.69;54.56;101481.44;5035896;28;46545;-43
2022/10/28 09:24:19;;;;;;;;;11.00;9.00;;;;;21.91;53.91;101479.41;5047607;28;45503;-50
2022/10/28 09:26:53;;;;;;;;;10.00;7.25;;;;;22.17;53.47;101479.53;5058180;28;45481;-45
2022/10/28 09:29:35;;;;;;;;;6.25;4.50;;;;;22.41;52.73;101493.53;5058293;28;45504;-43
2022/10/28 09:32:16;;;;;;;;;10.50;6.50;;;;;22.56;52.59;101493.34;5057973;28;46764;-48
2022/10/28 09:35:07;;;;;;;;;8.20;6.80;;;;;22.74;51.83;101503.56;5057350;28;45479;-46
2022/10/28 09:37:47;;;;;;;;;9.40;8.20;;;;;23.02;51.93;101511.53;5058149;28;45176;-47
2022/10/28 09:40:20;;;;;;;;;8.75;7.50;;;;;23.13;51.42;101506.31;5058184;28;45456;-42
2022/10/28 09:42:49;;;;;;;;;6.80;6.00;;;;;23.22;51.32;101506.06;5057843;28;46288;-47
2022/10/28 09:45:26;;;;;;;;;10.80;7.40;;;;;23.18;50.98;101508.38;5057975;28;45390;-44
2022/10/28 09:48:00;;;;;;;;;15.40;8.20;;;;;23.01;51.20;101508.00;5058044;28;45376;-48
2022/10/28 09:50:31;;;;;;;;;9.75;8.00;;;;;22.95;51.66;101506.09;5058118;28;45387;-46
2022/10/28 09:53:31;;;;;;;;;12.00;6.80;;;;;23.02;51.68;101511.53;5057805;28;45289;-45
2022/10/28 09:55:56;;;;;;;;;12.40;10.20;;;;;23.07;51.33;101511.75;5057780;28;45317;-49
2022/10/28 09:58:22;;;;;;;;;11.25;9.75;;;;;23.13;51.29;101519.03;5057868;28;45310;-48
2022/10/28 10:00:48;;;;;;;;;9.25;7.00;;;;;23.15;51.05;101512.34;5057836;28;45434;-46
2022/10/28 10:03:15;;;;;;;;;8.25;6.75;;;;;23.14;51.07;101516.13;5057346;28;45260;-45
2022/10/28 10:05:47;;;;;;;;;13.20;8.00;;;;;23.13;51.33;101525.31;5057704;28;45454;-47
2022/10/28 10:08:19;;;;;;;;;14.00;8.60;;;;;23.12;51.58;101529.03;5057959;28;45415;-46
2022/10/28 10:11:05;;;;;;;;;10.20;8.60;;;;;23.15;52.11;101533.22;5057796;28;45430;-49
2022/10/28 10:13:39;;;;;;;;;12.80;8.60;;;;;23.16;51.30;101533.00;5057174;28;46676;-48
2022/10/28 10:16:20;;;;;;;;;15.20;9.00;;;;;23.18;51.71;101545.56;5057159;28;45475;-47
2022/10/28 10:18:54;;;;;;;;;12.20;8.40;;;;;23.15;51.21;101539.50;5057547;28;45327;-49
2022/10/28 10:21:41;;;;;;;;;10.25;9.00;;;;;23.11;52.14;101534.69;5057593;28;45449;-45
2022/10/28 10:24:33;;;;;;;;;8.00;7.00;;;;;23.05;52.02;101541.81;5057324;28;45409;-47
2022/10/28 10:27:02;;;;;;;;;13.40;9.00;;;;;23.07;51.88;101525.31;5057234;28;45342;-49
2022/10/28 10:29:29;;;;;;;;;12.20;7.40;;;;;23.24;51.39;101533.84;5057173;28;45265;-47
2022/10/28 10:32:12;;;;;;;;;7.60;6.60;;;;;23.45;51.33;101535.47;5057482;28;45208;-48
2022/10/28 10:34:43;;;;;;;;;8.60;7.20;;;;;23.52;51.00;101548.00;5057011;28;45345;-47
2022/10/28 10:37:18;;;;;;;;;10.20;8.80;;;;;23.54;51.14;101531.47;5057058;28;45335;-47
2022/10/28 10:39:43;;;;;;;;;9.80;9.80;;;;;23.56;50.62;101537.53;5055038;28;45444;-48
2022/10/28 10:42:19;;;;;;;;;11.25;9.00;;;;;23.63;51.15;101535.63;5054330;28;45561;-48
2022/10/28 10:44:46;;;;;;;;;9.20;8.40;;;;;23.81;50.95;101535.81;5053928;28;46414;-47
2022/10/28 10:47:14;;;;;;;;;17.20;9.80;;;;;23.97;50.51;101552.66;5053738;28;45450;-45
2022/10/28 10:49:40;;;;;;;;;14.40;13.40;;;;;24.13;50.19;101560.34;5054014;28;45334;-49
2022/10/28 10:52:15;;;;;;;;;13.00;12.00;;;;;24.30;50.04;101550.63;5054918;28;45488;-47
2022/10/28 10:54:55;;;;;;;;;9.40;5.00;;;;;24.55;49.33;101560.75;5055635;28;47606;-43
2022/10/28 10:57:21;;;;;;;;;17.80;10.80;;;;;24.59;49.20;101562.81;5056880;28;45436;-42
2022/10/28 10:59:50;;;;;;;;;13.20;8.20;;;;;24.79;48.68;101583.63;5056877;28;45859;-48
2022/10/28 11:02:38;;;;;;;;;11.80;8.00;;;;;24.98;48.34;101579.06;5057066;28;45505;-43
2022/10/28 11:05:07;;;;;;;;;16.80;15.00;;;;;25.19;47.85;101573.25;5056674;28;45955;-44
2022/10/28 11:07:33;;;;;;;;;10.00;9.60;;;;;25.55;46.94;101569.75;5056690;28;45299;-46
2022/10/28 11:10:00;;;;;;;;;11.75;7.75;;;;;25.83;46.64;101568.41;5056617;28;45473;-45
2022/10/28 11:12:37;;;;;;;;;10.20;9.80;;;;;26.02;46.47;101577.44;5056790;28;45248;-52
2022/10/28 11:15:20;;;;;;;;;16.20;8.60;;;;;26.04;46.78;101567.09;5056341;28;45305;-46
2022/10/28 11:18:15;;;;;;;;;18.40;12.60;;;;;26.21;46.39;101578.22;5056666;28;45296;-50
2022/10/28 11:20:58;;;;;;;;;16.80;12.60;;;;;26.09;45.98;101575.47;5056592;28;45418;-43
2022/10/28 11:23:49;;;;;;;;;16.20;13.00;;;;;26.06;46.12;101584.09;5056798;28;45381;-49
2022/10/28 11:26:17;;;;;;;;;12.40;10.20;;;;;26.06;46.37;101587.66;5056217;28;45706;-44
2022/10/28 11:28:45;;;;;;;;;9.20;8.40;;;;;26.13;46.50;101596.59;5056435;28;45374;-46
2022/10/28 11:31:48;;;;;;;;;9.60;7.80;;;;;26.19;45.35;101594.00;5056524;28;45405;-43
2022/10/28 11:34:26;;;;;;;;;15.00;7.80;;;;;26.09;46.27;101594.53;5056485;28;45480;-44